createdAt,value
2022-09-10T00:00:40.796Z,16.20
2022-09-10T00:03:14.103Z,16.10
2022-09-10T00:05:49.571Z,16.10
2022-09-10T00:08:21.925Z,16.10
2022-09-10T00:10:54.697Z,16.10
2022-09-10T00:13:25.943Z,16.10
2022-09-10T00:15:57.443Z,16.00
2022-09-10T00:18:30.129Z,16.00
2022-09-10T00:21:03.360Z,16.10
2022-09-10T00:23:33.676Z,16.10
2022-09-10T00:26:13.436Z,16.20
2022-09-10T00:28:47.179Z,16.20
2022-09-10T00:31:19.433Z,16.30
2022-09-10T00:33:54.326Z,16.40
2022-09-10T00:36:29.782Z,16.40
2022-09-10T00:39:05.984Z,16.40
2022-09-10T00:41:38.151Z,16.40
2022-09-10T00:44:11.167Z,16.50
2022-09-10T00:46:51.887Z,16.50
2022-09-10T00:49:36.832Z,16.50
2022-09-10T00:52:12.325Z,16.40
2022-09-10T00:54:45.443Z,16.50
2022-09-10T00:57:23.411Z,16.50
2022-09-10T01:00:01.996Z,16.50
2022-09-10T01:02:32.279Z,16.50
2022-09-10T01:05:11.392Z,16.60
2022-09-10T01:07:42.908Z,16.60
2022-09-10T01:10:21.718Z,16.50
2022-09-10T01:13:29.725Z,16.50
2022-09-10T01:16:18.881Z,16.50
2022-09-10T01:19:10.599Z,16.50
2022-09-10T01:22:05.906Z,16.70
2022-09-10T01:24:56.625Z,16.70
2022-09-10T01:27:51.013Z,16.70
2022-09-10T01:30:25.883Z,16.80
2022-09-10T01:33:13.383Z,16.80
2022-09-10T01:35:52.588Z,16.80
2022-09-10T01:38:34.339Z,16.70
2022-09-10T01:41:05.370Z,16.80
2022-09-10T01:43:42.993Z,16.80
2022-09-10T01:46:29.953Z,16.70
2022-09-10T01:49:29.178Z,16.70
2022-09-10T01:52:28.685Z,16.70
2022-09-10T01:55:20.831Z,16.70
2022-09-10T01:58:06.749Z,16.70
2022-09-10T02:00:45.343Z,16.60
2022-09-10T02:03:20.827Z,16.60
2022-09-10T02:05:56.005Z,16.50
2022-09-10T02:08:33.742Z,16.50
2022-09-10T02:11:07.480Z,16.50
2022-09-10T02:13:38.935Z,16.50
2022-09-10T02:16:18.175Z,16.60
2022-09-10T02:18:49.735Z,16.70
2022-09-10T02:21:23.231Z,16.60
2022-09-10T02:23:59.731Z,16.60
2022-09-10T02:26:30.947Z,16.50
2022-09-10T02:29:04.102Z,16.40
2022-09-10T02:31:41.975Z,16.40
2022-09-10T02:34:15.856Z,16.40
2022-09-10T02:36:49.529Z,16.30
2022-09-10T02:39:20.060Z,16.30
2022-09-10T02:41:53.728Z,16.40
2022-09-10T02:44:23.899Z,16.40
2022-09-10T02:46:56.565Z,16.30
2022-09-10T02:49:28.298Z,16.30
2022-09-10T02:51:58.414Z,16.30
2022-09-10T02:54:33.680Z,16.30
2022-09-10T02:57:03.796Z,16.30
2022-09-10T02:59:33.880Z,16.40
2022-09-10T03:02:06.929Z,16.50
2022-09-10T03:04:37.018Z,16.50
2022-09-10T03:07:07.477Z,16.60
2022-09-10T03:09:37.513Z,16.60
2022-09-10T03:12:08.308Z,16.60
2022-09-10T03:14:38.410Z,16.60
2022-09-10T03:17:13.559Z,16.60
2022-09-10T03:19:43.693Z,16.70
2022-09-10T03:22:14.035Z,16.70
2022-09-10T03:24:52.548Z,16.60
2022-09-10T03:27:22.923Z,16.70
2022-09-10T03:29:52.960Z,16.60
2022-09-10T03:32:25.698Z,16.50
2022-09-10T03:34:59.381Z,16.40
2022-09-10T03:37:31.374Z,16.40
2022-09-10T03:40:03.895Z,16.40
2022-09-10T03:42:34.135Z,16.30
2022-09-10T03:45:07.793Z,16.30
2022-09-10T03:47:43.306Z,16.30
2022-09-10T03:50:13.552Z,16.20
2022-09-10T03:52:46.627Z,16.20
2022-09-10T03:55:17.975Z,16.20
2022-09-10T03:57:48.091Z,16.00
2022-09-10T04:00:21.408Z,16.00
2022-09-10T04:03:00.385Z,16.00
2022-09-10T04:05:32.391Z,15.90
2022-09-10T04:08:02.875Z,16.00
2022-09-10T04:10:33.095Z,16.00
2022-09-10T04:13:12.983Z,16.00
2022-09-10T04:15:44.227Z,16.10
2022-09-10T04:18:17.130Z,16.10
2022-09-10T04:20:49.780Z,16.00
2022-09-10T04:23:25.325Z,16.00
2022-09-10T04:25:58.724Z,16.00
2022-09-10T04:28:35.377Z,15.90
2022-09-10T04:31:08.442Z,15.80
2022-09-10T04:33:42.356Z,15.80
2022-09-10T04:36:12.881Z,15.80
2022-09-10T04:38:43.442Z,15.80
2022-09-10T04:41:15.515Z,15.70
2022-09-10T04:43:49.211Z,15.70
2022-09-10T04:46:20.319Z,15.70
2022-09-10T04:48:53.013Z,15.70
2022-09-10T04:51:23.164Z,15.70
2022-09-10T04:53:56.562Z,15.70
2022-09-10T04:56:26.674Z,15.70
2022-09-10T04:58:56.724Z,15.80
2022-09-10T05:01:29.519Z,15.80
2022-09-10T05:04:05.036Z,15.90
2022-09-10T05:06:35.105Z,16.00
2022-09-10T05:09:12.105Z,16.10
2022-09-10T05:11:45.273Z,16.20
2022-09-10T05:14:15.602Z,16.20
2022-09-10T05:16:48.518Z,16.10
2022-09-10T05:19:21.414Z,16.10
2022-09-10T05:21:51.970Z,16.00
2022-09-10T05:24:24.742Z,15.90
2022-09-10T05:26:59.262Z,15.80
2022-09-10T05:29:29.403Z,15.80
2022-09-10T05:31:59.443Z,15.80
2022-09-10T05:37:19.616Z,15.80
2022-09-10T05:39:50.048Z,15.80
2022-09-10T05:42:22.666Z,15.80
2022-09-10T05:44:53.227Z,15.80
2022-09-10T05:47:31.497Z,15.90
2022-09-10T05:50:04.455Z,16.10
2022-09-10T05:52:35.223Z,16.20
2022-09-10T05:55:05.518Z,16.40
2022-09-10T05:57:35.829Z,16.60
2022-09-10T06:00:09.315Z,16.80
2022-09-10T06:02:40.164Z,17.00
2022-09-10T06:05:13.291Z,17.30
2022-09-10T06:07:43.410Z,17.40
2022-09-10T06:10:14.539Z,17.80
2022-09-10T06:12:49.627Z,18.00
2022-09-10T06:15:21.172Z,18.30
2022-09-10T06:17:54.161Z,18.60
2022-09-10T06:20:26.810Z,18.90
2022-09-10T06:22:57.168Z,19.00
2022-09-10T06:25:27.433Z,19.00
2022-09-10T06:27:57.463Z,18.90
2022-09-10T06:30:27.851Z,19.00
2022-09-10T06:32:59.096Z,19.00
2022-09-10T06:35:34.035Z,19.00
2022-09-10T06:38:09.920Z,19.00
2022-09-10T06:40:42.873Z,19.20
2022-09-10T06:43:12.905Z,19.30
2022-09-10T06:45:43.177Z,19.20
2022-09-10T06:48:38.933Z,19.40
2022-09-10T06:51:07.366Z,19.50
2022-09-10T06:53:38.269Z,19.90
2022-09-10T06:56:11.091Z,19.90
2022-09-10T06:58:45.081Z,19.70
2022-09-10T07:01:18.960Z,19.70
2022-09-10T07:03:50.190Z,19.90
2022-09-10T07:06:23.193Z,19.90
2022-09-10T07:08:58.355Z,19.60
2022-09-10T07:11:32.480Z,19.60
2022-09-10T07:14:06.343Z,19.50
2022-09-10T07:16:36.455Z,19.20
2022-09-10T07:19:06.546Z,18.90
2022-09-10T07:21:39.713Z,18.70
2022-09-10T07:24:10.036Z,18.70
2022-09-10T07:26:42.503Z,18.60
2022-09-10T07:29:12.920Z,18.60
2022-09-10T07:31:45.699Z,18.70
2022-09-10T07:34:20.276Z,19.10
2022-09-10T07:36:53.231Z,19.40
2022-09-10T07:39:25.675Z,19.40
2022-09-10T07:41:58.446Z,19.50
2022-09-10T07:44:29.271Z,19.80
2022-09-10T07:46:59.316Z,20.20
2022-09-10T07:49:30.235Z,20.30
2022-09-10T07:52:07.311Z,20.40
2022-09-10T07:54:42.837Z,20.50
2022-09-10T07:57:12.991Z,21.10
2022-09-10T07:59:43.537Z,22.10
2022-09-10T08:02:17.806Z,22.80
2022-09-10T08:04:50.551Z,23.00
2022-09-10T08:07:23.437Z,23.60
2022-09-10T08:09:53.630Z,24.00
2022-09-10T08:12:27.043Z,24.60
2022-09-10T08:14:58.704Z,24.00
2022-09-10T08:17:28.830Z,23.70
2022-09-10T08:20:10.858Z,23.30
2022-09-10T08:22:52.003Z,22.60
2022-09-10T08:25:22.370Z,21.80
2022-09-10T08:27:55.375Z,21.10
2022-09-10T08:30:25.411Z,20.70
2022-09-10T08:32:56.237Z,20.40
2022-09-10T08:35:28.729Z,20.40
2022-09-10T08:38:01.473Z,20.30
2022-09-10T08:40:31.630Z,20.10
2022-09-10T08:43:01.951Z,20.40
2022-09-10T08:45:39.777Z,20.50
2022-09-10T08:48:20.300Z,20.80
2022-09-10T08:50:57.528Z,21.10
2022-09-10T08:53:40.982Z,21.20
2022-09-10T08:56:18.429Z,21.10
2022-09-10T08:58:58.485Z,21.00
2022-09-10T09:01:35.470Z,20.40
2022-09-10T09:04:17.489Z,19.90
2022-09-10T09:06:54.251Z,19.40
2022-09-10T09:09:29.502Z,19.20
2022-09-10T09:12:31.148Z,18.90
2022-09-10T09:15:14.840Z,18.90
2022-09-10T09:18:18.439Z,18.90
2022-09-10T09:20:52.660Z,19.00
2022-09-10T09:23:32.935Z,19.30
2022-09-10T09:26:15.719Z,19.40
2022-09-10T09:28:55.334Z,19.40
2022-09-10T09:31:31.292Z,19.60
2022-09-10T09:34:09.583Z,19.60
2022-09-10T09:36:49.200Z,19.90
2022-09-10T09:39:26.429Z,20.10
2022-09-10T09:42:15.024Z,20.40
2022-09-10T09:44:57.015Z,20.80
2022-09-10T09:47:27.387Z,21.10
2022-09-10T09:49:57.929Z,21.00
2022-09-10T09:52:33.375Z,21.00
2022-09-10T09:55:15.958Z,20.80
2022-09-10T09:57:48.928Z,20.40
2022-09-10T10:00:40.757Z,20.40
2022-09-10T10:03:21.241Z,20.20
2022-09-10T10:05:51.616Z,20.10
2022-09-10T10:08:34.146Z,20.00
2022-09-10T10:11:04.351Z,20.10
2022-09-10T10:13:43.952Z,20.20
2022-09-10T10:16:26.893Z,20.10
2022-09-10T10:18:57.140Z,20.10
2022-09-10T10:21:34.816Z,20.20
2022-09-10T10:24:09.620Z,20.10
2022-09-10T10:26:44.027Z,20.20
2022-09-10T10:29:23.868Z,20.10
2022-09-10T10:31:56.182Z,20.20
2022-09-10T10:34:58.274Z,20.20
2022-09-10T10:37:49.501Z,20.50
2022-09-10T10:40:40.314Z,20.80
2022-09-10T10:43:24.669Z,21.10
2022-09-10T10:46:11.922Z,21.30
2022-09-10T10:49:06.356Z,21.40
2022-09-10T10:51:56.439Z,21.40
2022-09-10T10:54:57.409Z,21.10
2022-09-10T10:57:47.773Z,21.10
2022-09-10T11:00:23.486Z,21.20
2022-09-10T11:03:09.564Z,21.30
2022-09-10T11:05:53.109Z,21.10
2022-09-10T11:08:34.879Z,20.70
2022-09-10T11:11:19.557Z,20.70
2022-09-10T11:13:59.194Z,20.80
2022-09-10T11:16:40.431Z,20.90
2022-09-10T11:19:28.033Z,21.00
2022-09-10T11:22:06.734Z,21.20
2022-09-10T11:24:44.686Z,21.20
2022-09-10T11:27:28.605Z,21.20
2022-09-10T11:30:06.489Z,21.30
2022-09-10T11:32:56.246Z,21.30
2022-09-10T11:35:34.210Z,21.30
2022-09-10T11:38:18.266Z,21.30
2022-09-10T11:41:03.294Z,21.30
2022-09-10T11:43:48.244Z,21.30
2022-09-10T11:46:26.213Z,21.20
2022-09-10T11:49:16.663Z,21.20
2022-09-10T11:51:57.025Z,21.30
2022-09-10T11:54:34.484Z,21.40
2022-09-10T11:57:12.521Z,21.40
2022-09-10T12:00:15.791Z,21.30
2022-09-10T12:03:46.892Z,21.30
2022-09-10T12:06:26.419Z,20.80
2022-09-10T12:09:17.955Z,20.60
2022-09-10T12:12:00.216Z,20.30
2022-09-10T12:14:30.552Z,20.20
2022-09-10T12:17:07.051Z,20.10
2022-09-10T12:19:46.036Z,20.00
2022-09-10T12:22:24.095Z,20.20
2022-09-10T12:25:02.440Z,20.30
2022-09-10T12:27:49.941Z,20.30
2022-09-10T12:31:03.197Z,20.40
2022-09-10T12:34:12.397Z,20.60
2022-09-10T12:37:26.414Z,20.80
2022-09-10T12:40:44.314Z,20.90
2022-09-10T12:43:58.571Z,20.80
2022-09-10T12:46:33.816Z,20.90
2022-09-10T12:49:16.367Z,21.20
2022-09-10T12:52:02.135Z,21.50
2022-09-10T12:55:00.639Z,22.00
2022-09-10T12:57:47.307Z,22.10
2022-09-10T13:00:26.083Z,22.10
2022-09-10T13:03:22.026Z,21.70
2022-09-10T13:05:57.179Z,21.40
2022-09-10T13:08:38.332Z,21.30
2022-09-10T13:11:23.704Z,21.00
2022-09-10T13:14:00.372Z,20.50
2022-09-10T13:16:45.177Z,20.00
2022-09-10T13:19:56.766Z,19.60
2022-09-10T13:23:03.762Z,19.20
2022-09-10T13:25:53.844Z,19.00
2022-09-10T13:29:06.911Z,18.80
2022-09-10T13:31:45.154Z,18.60
2022-09-10T13:35:04.294Z,18.60
2022-09-10T13:38:10.692Z,18.40
2022-09-10T13:41:17.219Z,18.30
2022-09-10T13:44:21.219Z,18.50
2022-09-10T13:46:59.301Z,18.80
2022-09-10T13:49:49.067Z,19.00
2022-09-10T13:52:24.470Z,19.30
2022-09-10T13:55:00.416Z,19.80
2022-09-10T13:57:36.592Z,20.40
2022-09-10T14:00:21.863Z,20.80
2022-09-10T14:02:56.798Z,21.20
2022-09-10T14:05:48.204Z,21.50
2022-09-10T14:08:27.408Z,21.60
2022-09-10T14:11:10.441Z,21.40
2022-09-10T14:13:51.923Z,21.20
2022-09-10T14:16:32.373Z,21.00
2022-09-10T14:19:16.335Z,20.80
2022-09-10T14:21:54.393Z,20.50
2022-09-10T14:24:34.292Z,20.40
2022-09-10T14:27:17.206Z,20.20
2022-09-10T14:29:50.243Z,20.10
2022-09-10T14:32:32.459Z,20.10
2022-09-10T14:35:47.292Z,19.90
2022-09-10T14:38:27.189Z,19.80
2022-09-10T14:41:08.027Z,19.50
2022-09-10T14:43:50.476Z,19.30
2022-09-10T14:46:58.399Z,19.10
2022-09-10T14:49:36.047Z,18.90
2022-09-10T14:52:09.549Z,18.90
2022-09-10T14:54:39.604Z,18.90
2022-09-10T14:57:15.359Z,18.90
2022-09-10T14:59:49.348Z,19.10
2022-09-10T15:02:25.696Z,19.40
2022-09-10T15:04:58.931Z,19.80
2022-09-10T15:07:31.627Z,20.10
2022-09-10T15:10:01.818Z,20.40
2022-09-10T15:12:34.725Z,20.60
2022-09-10T15:15:04.826Z,20.50
2022-09-10T15:17:40.290Z,20.30
2022-09-10T15:20:17.143Z,20.50
2022-09-10T15:22:52.271Z,20.70
2022-09-10T15:25:38.521Z,20.80
2022-09-10T15:28:09.657Z,20.90
2022-09-10T15:30:39.875Z,21.00
2022-09-10T15:33:11.232Z,20.90
2022-09-10T15:35:42.145Z,20.60
2022-09-10T15:38:16.310Z,20.60
2022-09-10T15:40:47.464Z,20.70
2022-09-10T15:43:20.590Z,20.70
2022-09-10T15:45:50.668Z,20.70
2022-09-10T15:48:20.699Z,20.60
2022-09-10T15:50:50.768Z,20.60
2022-09-10T15:53:23.417Z,20.60
2022-09-10T15:55:53.468Z,20.70
2022-09-10T15:58:28.920Z,20.70
2022-09-10T16:01:03.405Z,20.80
2022-09-10T16:03:33.679Z,20.70
2022-09-10T16:06:07.419Z,20.70
2022-09-10T16:08:40.252Z,20.60
2022-09-10T16:11:14.539Z,20.70
2022-09-10T16:13:45.023Z,20.60
2022-09-10T16:16:20.688Z,20.50
2022-09-10T16:18:51.872Z,20.40
2022-09-10T16:21:26.219Z,20.30
2022-09-10T16:24:04.261Z,20.30
2022-09-10T16:26:37.461Z,20.10
2022-09-10T16:29:14.594Z,19.70
2022-09-10T16:34:47.165Z,19.50
2022-09-10T16:37:19.824Z,19.10
2022-09-10T16:39:52.566Z,18.90
2022-09-10T16:42:22.778Z,18.70
2022-09-10T16:44:52.778Z,18.50
2022-09-10T16:47:25.129Z,18.40
2022-09-10T16:49:55.284Z,18.30
2022-09-10T16:52:28.954Z,18.30
2022-09-10T16:55:06.732Z,18.20
2022-09-10T16:57:36.808Z,18.30
2022-09-10T17:00:10.384Z,18.30
2022-09-10T17:02:40.985Z,18.30
2022-09-10T17:05:15.195Z,18.30
2022-09-10T17:07:45.264Z,18.30
2022-09-10T17:10:20.697Z,18.40
2022-09-10T17:12:50.830Z,18.40
2022-09-10T17:15:21.047Z,18.40
2022-09-10T17:17:51.124Z,18.40
2022-09-10T17:20:24.015Z,18.50
2022-09-10T17:22:54.138Z,18.50
2022-09-10T17:25:29.719Z,18.40
2022-09-10T17:28:02.727Z,18.40
2022-09-10T17:30:32.820Z,18.30
2022-09-10T17:33:02.910Z,18.30
2022-09-10T17:35:33.198Z,18.30
2022-09-10T17:38:03.324Z,18.30
2022-09-10T17:40:38.459Z,18.20
2022-09-10T17:43:08.549Z,18.20
2022-09-10T17:45:43.031Z,18.20
2022-09-10T17:48:13.076Z,18.30
2022-09-10T17:50:49.056Z,18.30
2022-09-10T17:53:20.560Z,18.20
2022-09-10T17:55:55.560Z,18.20
2022-09-10T17:58:27.708Z,18.10
2022-09-10T18:01:03.048Z,18.00
2022-09-10T18:03:34.196Z,18.10
2022-09-10T18:06:08.620Z,18.00
2022-09-10T18:08:40.091Z,17.90
2022-09-10T18:11:16.433Z,17.90
2022-09-10T18:13:54.323Z,17.90
2022-09-10T18:16:28.753Z,17.90
2022-09-10T18:19:02.068Z,17.90
2022-09-10T18:21:34.716Z,18.00
2022-09-10T18:24:08.592Z,18.00
2022-09-10T18:26:50.236Z,17.90
2022-09-10T18:29:23.457Z,17.90
2022-09-10T18:32:08.320Z,17.90
2022-09-10T18:34:41.305Z,17.90
2022-09-10T18:37:11.391Z,17.80
2022-09-10T18:39:41.521Z,17.90
2022-09-10T18:42:14.243Z,17.80
2022-09-10T18:44:45.340Z,17.70
2022-09-10T18:47:41.039Z,17.70
2022-09-10T18:50:10.280Z,17.60
2022-09-10T18:52:40.368Z,17.50
2022-09-10T18:55:12.173Z,17.50
2022-09-10T18:57:50.520Z,17.50
2022-09-10T19:00:20.608Z,17.40
2022-09-10T19:02:50.727Z,17.40
2022-09-10T19:05:21.265Z,17.40
2022-09-10T19:07:51.788Z,17.30
2022-09-10T19:10:21.845Z,17.30
2022-09-10T19:12:54.599Z,17.40
2022-09-10T19:15:28.324Z,17.30
2022-09-10T19:18:04.547Z,17.30
2022-09-10T19:20:39.607Z,17.20
2022-09-10T19:23:10.156Z,17.20
2022-09-10T19:25:40.268Z,17.10
2022-09-10T19:28:15.560Z,17.10
2022-09-10T19:30:45.685Z,17.10
2022-09-10T19:33:16.163Z,17.00
2022-09-10T19:35:51.571Z,17.00
2022-09-10T19:38:37.027Z,17.00
2022-09-10T19:41:10.883Z,16.90
2022-09-10T19:43:46.496Z,16.90
2022-09-10T19:46:18.613Z,16.90
2022-09-10T19:48:50.197Z,16.90
2022-09-10T19:51:22.791Z,16.80
2022-09-10T19:53:56.345Z,16.80
2022-09-10T19:56:29.923Z,16.80
2022-09-10T19:59:08.559Z,16.80
2022-09-10T20:01:46.040Z,16.80
2022-09-10T20:04:17.088Z,16.90
2022-09-10T20:06:47.729Z,17.00
2022-09-10T20:09:21.291Z,17.00
2022-09-10T20:11:51.339Z,17.00
2022-09-10T20:14:24.009Z,17.00
2022-09-10T20:16:54.738Z,17.00
2022-09-10T20:19:29.360Z,17.00
2022-09-10T20:22:02.251Z,16.90
2022-09-10T20:24:32.372Z,16.90
2022-09-10T20:27:02.449Z,16.80
2022-09-10T20:29:35.510Z,16.90
2022-09-10T20:32:06.887Z,16.90
2022-09-10T20:34:37.197Z,16.90
2022-09-10T20:37:07.497Z,16.80
2022-09-10T20:39:45.057Z,16.70
2022-09-10T20:42:15.171Z,16.70
2022-09-10T20:44:50.661Z,16.70
2022-09-10T20:47:24.195Z,16.70
2022-09-10T20:49:57.502Z,16.70
2022-09-10T20:52:27.658Z,16.60
2022-09-10T20:55:00.358Z,16.60
2022-09-10T20:57:30.904Z,16.60
2022-09-10T21:00:03.733Z,16.60
2022-09-10T21:02:33.891Z,16.60
2022-09-10T21:05:04.116Z,16.60
2022-09-10T21:07:37.257Z,16.60
2022-09-10T21:10:08.275Z,16.60
2022-09-10T21:12:38.540Z,16.70
2022-09-10T21:15:13.544Z,16.60
2022-09-10T21:17:44.033Z,16.60
2022-09-10T21:20:14.547Z,16.60
2022-09-10T21:22:44.754Z,16.70
2022-09-10T21:25:14.823Z,16.70
2022-09-10T21:27:48.110Z,16.70
2022-09-10T21:30:20.920Z,16.70
2022-09-10T21:32:59.305Z,16.70
2022-09-10T21:35:29.366Z,16.70
2022-09-10T21:37:59.448Z,16.70
2022-09-10T21:40:29.482Z,16.70
2022-09-10T21:43:00.254Z,16.70
2022-09-10T21:45:39.260Z,16.70
2022-09-10T21:48:09.320Z,16.70
2022-09-10T21:50:39.728Z,16.60
2022-09-10T21:53:11.230Z,16.60
2022-09-10T21:55:48.626Z,16.60
2022-09-10T21:58:20.987Z,16.60
2022-09-10T22:00:58.538Z,16.50
2022-09-10T22:03:28.646Z,16.50
2022-09-10T22:06:08.761Z,16.50
2022-09-10T22:08:41.297Z,16.50
2022-09-10T22:11:15.363Z,16.50
2022-09-10T22:13:46.620Z,16.50
2022-09-10T22:16:28.916Z,16.50
2022-09-10T22:19:01.250Z,16.50
2022-09-10T22:21:39.504Z,16.60
2022-09-10T22:24:11.453Z,16.70
2022-09-10T22:26:46.174Z,16.60
2022-09-10T22:29:20.411Z,16.60
2022-09-10T22:32:02.546Z,16.60
2022-09-10T22:34:36.608Z,16.50
2022-09-10T22:37:09.460Z,16.50
2022-09-10T22:39:44.919Z,16.50
2022-09-10T22:42:15.107Z,16.50
2022-09-10T22:44:47.499Z,16.40
2022-09-10T22:47:20.134Z,16.40
2022-09-10T22:49:52.496Z,16.50
2022-09-10T22:52:22.585Z,16.50
2022-09-10T22:54:58.651Z,16.50
2022-09-10T22:57:29.118Z,16.50
2022-09-10T23:00:01.452Z,16.50
2022-09-10T23:02:34.118Z,16.50
2022-09-10T23:05:05.285Z,16.50
2022-09-10T23:07:35.407Z,16.60
2022-09-10T23:10:05.624Z,16.50
2022-09-10T23:12:36.056Z,16.40
2022-09-10T23:15:06.388Z,16.40
2022-09-10T23:17:39.012Z,16.40
2022-09-10T23:20:10.943Z,16.40
2022-09-10T23:22:41.038Z,16.40
2022-09-10T23:25:12.269Z,16.40
2022-09-10T23:27:42.371Z,16.40
2022-09-10T23:30:16.143Z,16.40
2022-09-10T23:32:48.951Z,16.40
2022-09-10T23:35:21.968Z,16.40
2022-09-10T23:37:52.207Z,16.30
2022-09-10T23:40:27.912Z,16.30
2022-09-10T23:43:00.123Z,16.20
2022-09-10T23:45:32.492Z,16.30
2022-09-10T23:48:05.796Z,16.20
2022-09-10T23:50:36.047Z,16.20
2022-09-10T23:53:06.120Z,16.30
2022-09-10T23:55:37.221Z,16.20
2022-09-10T23:58:07.788Z,16.20
